createdAt,value
2023-01-03T00:00:14.571Z,5.94
2023-01-03T00:03:17.533Z,5.93
2023-01-03T00:06:21.357Z,5.94
2023-01-03T00:09:23.889Z,5.94
2023-01-03T00:12:30.476Z,5.93
2023-01-03T00:15:34.106Z,5.89
2023-01-03T00:18:35.753Z,5.88
2023-01-03T00:21:38.715Z,5.87
2023-01-03T00:24:40.419Z,5.84
2023-01-03T00:27:42.795Z,5.85
2023-01-03T00:30:44.481Z,5.81
2023-01-03T00:33:46.321Z,5.80
2023-01-03T00:36:49.638Z,5.80
2023-01-03T00:39:51.209Z,5.77
2023-01-03T00:43:11.544Z,5.77
2023-01-03T00:46:13.971Z,5.78
2023-01-03T00:49:16.950Z,5.78
2023-01-03T00:52:19.829Z,5.80
2023-01-03T00:55:21.390Z,5.81
2023-01-03T00:58:23.428Z,5.82
2023-01-03T01:01:26.379Z,5.85
2023-01-03T01:04:29.119Z,5.84
2023-01-03T01:07:32.339Z,5.79
2023-01-03T01:10:33.989Z,5.81
2023-01-03T01:13:35.797Z,5.81
2023-01-03T01:16:37.387Z,5.86
2023-01-03T01:19:40.801Z,5.86
2023-01-03T01:22:44.069Z,5.85
2023-01-03T01:25:45.630Z,5.86
2023-01-03T01:28:47.520Z,5.84
2023-01-03T01:31:49.563Z,5.83
2023-01-03T01:34:51.193Z,5.79
2023-01-03T01:37:54.048Z,5.74
2023-01-03T01:40:55.555Z,5.71
2023-01-03T01:44:16.409Z,5.69
2023-01-03T01:47:21.381Z,5.68
2023-01-03T01:50:24.849Z,5.66
2023-01-03T01:53:29.635Z,5.65
2023-01-03T01:56:33.478Z,5.68
2023-01-03T01:59:35.454Z,5.66
2023-01-03T02:02:37.323Z,5.69
2023-01-03T02:05:41.612Z,5.68
2023-01-03T02:08:44.636Z,5.70
2023-01-03T02:11:51.262Z,5.69
2023-01-03T02:14:59.278Z,5.68
2023-01-03T02:18:08.285Z,5.67
2023-01-03T02:21:22.065Z,5.63
2023-01-03T02:24:34.246Z,5.64
2023-01-03T02:27:50.570Z,5.64
2023-01-03T02:30:57.275Z,5.66
2023-01-03T02:34:02.948Z,5.66
2023-01-03T02:37:11.479Z,5.68
2023-01-03T02:40:17.382Z,5.66
2023-01-03T02:43:22.128Z,5.65
2023-01-03T02:46:27.155Z,5.65
2023-01-03T02:49:31.673Z,5.62
2023-01-03T02:52:33.962Z,5.62
2023-01-03T02:55:37.937Z,5.59
2023-01-03T02:58:40.459Z,5.58
2023-01-03T03:01:45.292Z,5.52
2023-01-03T03:04:49.209Z,5.54
2023-01-03T03:07:50.806Z,5.50
2023-01-03T03:11:11.751Z,5.46
2023-01-03T03:14:17.887Z,5.44
2023-01-03T03:17:24.187Z,5.43
2023-01-03T03:20:44.438Z,5.41
2023-01-03T03:24:06.241Z,5.38
2023-01-03T03:27:30.165Z,5.41
2023-01-03T03:30:33.422Z,5.41
2023-01-03T03:33:39.580Z,5.44
2023-01-03T03:36:45.483Z,5.46
2023-01-03T03:40:06.335Z,5.41
2023-01-03T03:43:30.054Z,5.44
2023-01-03T03:46:33.932Z,5.45
2023-01-03T03:49:38.252Z,5.42
2023-01-03T03:52:43.066Z,5.45
2023-01-03T03:55:47.737Z,5.43
2023-01-03T03:58:51.468Z,5.40
2023-01-03T04:01:54.418Z,5.37
2023-01-03T04:04:59.184Z,5.37
2023-01-03T04:08:00.779Z,5.31
2023-01-03T04:11:08.368Z,5.29
2023-01-03T04:14:10.286Z,5.24
2023-01-03T04:17:12.272Z,5.24
2023-01-03T04:20:15.276Z,5.28
2023-01-03T04:23:16.780Z,5.26
2023-01-03T04:26:18.558Z,5.17
2023-01-03T04:29:20.054Z,5.11
2023-01-03T04:32:21.597Z,5.14
2023-01-03T04:35:24.500Z,5.18
2023-01-03T04:38:26.097Z,5.16
2023-01-03T04:41:27.732Z,5.17
2023-01-03T04:44:29.317Z,5.17
2023-01-03T04:47:30.807Z,5.14
2023-01-03T04:50:33.909Z,5.15
2023-01-03T04:53:35.458Z,5.08
2023-01-03T04:56:38.202Z,4.99
2023-01-03T04:59:39.747Z,4.94
2023-01-03T05:02:41.339Z,4.94
2023-01-03T05:05:44.746Z,4.95
2023-01-03T05:08:47.249Z,4.99
2023-01-03T05:11:48.969Z,5.02
2023-01-03T05:14:50.560Z,5.03
2023-01-03T05:17:52.124Z,5.00
2023-01-03T05:21:14.593Z,4.97
2023-01-03T05:24:34.742Z,4.93
2023-01-03T05:27:36.237Z,4.93
2023-01-03T05:30:37.834Z,4.90
2023-01-03T05:33:40.020Z,4.89
2023-01-03T05:36:43.097Z,4.88
2023-01-03T05:39:44.601Z,4.88
2023-01-03T05:42:46.138Z,4.90
2023-01-03T05:45:49.003Z,4.90
2023-01-03T05:48:50.629Z,4.90
2023-01-03T05:51:53.635Z,4.89
2023-01-03T05:54:55.215Z,4.88
2023-01-03T05:57:56.746Z,4.91
2023-01-03T06:00:58.300Z,4.92
2023-01-03T06:03:59.965Z,4.92
2023-01-03T06:07:02.913Z,4.91
2023-01-03T06:10:05.392Z,4.93
2023-01-03T06:13:07.341Z,4.91
2023-01-03T06:16:28.694Z,4.93
2023-01-03T06:19:30.981Z,4.93
2023-01-03T06:22:34.170Z,4.91
2023-01-03T06:25:35.816Z,4.95
2023-01-03T06:28:39.319Z,4.91
2023-01-03T06:31:41.706Z,4.91
2023-01-03T06:34:43.421Z,4.88
2023-01-03T06:37:46.390Z,4.89
2023-01-03T06:40:48.196Z,4.88
2023-01-03T06:43:49.741Z,4.88
2023-01-03T06:47:10.364Z,4.86
2023-01-03T06:50:30.676Z,4.83
2023-01-03T06:53:35.917Z,4.82
2023-01-03T06:56:37.486Z,4.77
2023-01-03T06:59:39.199Z,4.76
2023-01-03T07:02:41.008Z,4.73
2023-01-03T07:05:42.661Z,4.73
2023-01-03T07:08:48.366Z,4.68
2023-01-03T07:11:50.806Z,4.64
2023-01-03T07:14:52.363Z,4.58
2023-01-03T07:17:54.792Z,4.54
2023-01-03T07:20:56.276Z,4.50
2023-01-03T07:24:01.870Z,4.45
2023-01-03T07:27:03.744Z,4.38
2023-01-03T07:30:06.150Z,4.33
2023-01-03T07:33:09.218Z,4.26
2023-01-03T07:36:12.380Z,4.25
2023-01-03T07:39:15.415Z,4.23
2023-01-03T07:42:35.570Z,4.25
2023-01-03T07:45:39.267Z,4.23
2023-01-03T07:48:41.410Z,4.22
2023-01-03T07:51:42.989Z,4.20
2023-01-03T07:54:45.859Z,4.17
2023-01-03T07:57:51.873Z,4.17
2023-01-03T08:00:53.417Z,4.15
2023-01-03T08:03:55.068Z,4.13
2023-01-03T08:06:58.224Z,4.12
2023-01-03T08:10:19.802Z,4.09
2023-01-03T08:13:21.575Z,4.13
2023-01-03T08:16:23.325Z,4.17
2023-01-03T08:19:25.036Z,4.18
2023-01-03T08:22:27.539Z,4.22
2023-01-03T08:25:30.824Z,4.21
2023-01-03T08:28:32.949Z,4.12
2023-01-03T08:31:37.669Z,4.01
2023-01-03T08:34:42.404Z,3.94
2023-01-03T08:37:44.701Z,3.95
2023-01-03T08:40:47.843Z,3.99
2023-01-03T08:43:49.603Z,4.03
2023-01-03T08:46:53.338Z,4.17
2023-01-03T08:49:55.368Z,4.30
2023-01-03T08:52:58.510Z,4.42
2023-01-03T08:56:01.523Z,4.53
2023-01-03T08:59:03.417Z,4.63
2023-01-03T09:02:05.122Z,4.70
2023-01-03T09:05:07.769Z,4.81
2023-01-03T09:08:09.289Z,4.86
2023-01-03T09:11:12.433Z,4.97
2023-01-03T09:14:14.421Z,5.08
2023-01-03T09:17:16.379Z,5.09
2023-01-03T09:20:18.924Z,5.12
2023-01-03T09:23:20.550Z,5.18
2023-01-03T09:26:23.422Z,5.23
2023-01-03T09:29:25.086Z,5.39
2023-01-03T09:32:26.705Z,5.45
2023-01-03T09:35:28.664Z,5.48
2023-01-03T09:49:07.574Z,5.51
2023-01-03T09:52:33.658Z,5.49
2023-01-03T09:59:18.324Z,5.69
2023-01-03T10:05:41.388Z,5.84
2023-01-03T10:08:50.580Z,5.91
2023-01-03T10:11:58.799Z,6.04
2023-01-03T10:15:07.156Z,6.09
2023-01-03T10:18:16.869Z,6.20
2023-01-03T10:21:22.795Z,6.17
2023-01-03T10:24:25.293Z,6.19
2023-01-03T10:27:27.896Z,6.18
2023-01-03T10:30:35.084Z,6.34
2023-01-03T10:33:38.775Z,6.40
2023-01-03T10:36:41.655Z,6.45
2023-01-03T10:39:43.190Z,6.57
2023-01-03T10:42:45.544Z,6.54
2023-01-03T10:45:51.790Z,6.59
2023-01-03T10:49:26.825Z,6.71
2023-01-03T10:52:18.521Z,6.77
2023-01-03T10:55:21.788Z,6.81
2023-01-03T10:58:27.986Z,6.82
2023-01-03T11:01:32.486Z,6.89
2023-01-03T11:04:34.832Z,6.85
2023-01-03T11:07:42.556Z,6.99
2023-01-03T11:11:05.040Z,7.00
2023-01-03T11:14:18.849Z,7.04
2023-01-03T11:17:21.429Z,7.02
2023-01-03T11:20:35.777Z,7.17
2023-01-03T11:23:48.438Z,7.39
2023-01-03T11:26:51.280Z,7.37
2023-01-03T11:29:59.353Z,7.41
2023-01-03T11:33:07.619Z,7.47
2023-01-03T11:36:20.958Z,7.54
2023-01-03T11:39:36.355Z,7.48
2023-01-03T11:42:47.000Z,7.53
2023-01-03T11:46:02.465Z,7.62
2023-01-03T11:49:09.831Z,7.65
2023-01-03T11:52:19.673Z,7.68
2023-01-03T11:55:40.041Z,7.65
2023-01-03T11:59:02.259Z,7.38
2023-01-03T12:02:22.692Z,7.11
2023-01-03T12:05:45.520Z,6.97
2023-01-03T12:08:52.662Z,6.83
2023-01-03T12:12:04.514Z,6.79
2023-01-03T12:15:13.553Z,6.76
2023-01-03T12:18:18.742Z,6.72
2023-01-03T12:21:21.872Z,6.70
2023-01-03T12:24:28.005Z,6.67
2023-01-03T12:27:33.056Z,6.65
2023-01-03T12:30:39.808Z,6.65
2023-01-03T12:33:43.075Z,6.66
2023-01-03T12:36:48.750Z,6.70
2023-01-03T12:39:55.246Z,6.71
2023-01-03T12:42:59.981Z,6.75
2023-01-03T12:46:12.673Z,6.77
2023-01-03T12:49:17.350Z,6.72
2023-01-03T12:52:21.028Z,6.65
2023-01-03T12:55:24.928Z,6.59
2023-01-03T12:58:39.733Z,6.64
2023-01-03T13:01:45.202Z,6.69
2023-01-03T13:04:48.946Z,6.72
2023-01-03T13:07:53.547Z,6.71
2023-01-03T13:10:57.947Z,6.73
2023-01-03T13:14:03.656Z,6.77
2023-01-03T13:17:12.342Z,6.80
2023-01-03T13:20:33.304Z,6.75
2023-01-03T13:23:36.311Z,6.72
2023-01-03T13:26:37.870Z,6.71
2023-01-03T13:29:44.672Z,6.67
2023-01-03T13:32:48.034Z,6.68
2023-01-03T13:35:57.858Z,6.72
2023-01-03T13:39:00.292Z,6.76
2023-01-03T13:42:01.895Z,6.79
2023-01-03T13:45:22.389Z,6.80
2023-01-03T13:48:41.997Z,6.82
2023-01-03T13:51:49.155Z,6.83
2023-01-03T13:54:59.783Z,6.85
2023-01-03T13:58:01.816Z,6.86
2023-01-03T14:01:06.465Z,6.86
2023-01-03T14:04:22.990Z,6.88
2023-01-03T14:07:48.063Z,6.86
2023-01-03T14:11:01.177Z,6.84
2023-01-03T14:14:05.785Z,6.83
2023-01-03T14:17:14.805Z,6.85
2023-01-03T14:20:19.315Z,6.85
2023-01-03T14:23:58.450Z,6.88
2023-01-03T14:26:45.918Z,6.89
2023-01-03T14:29:49.737Z,6.88
2023-01-03T14:32:51.509Z,6.88
2023-01-03T14:36:01.019Z,6.86
2023-01-03T14:39:05.260Z,6.86
2023-01-03T14:42:07.675Z,6.87
2023-01-03T14:45:16.647Z,6.88
2023-01-03T14:48:18.465Z,6.87
2023-01-03T14:51:20.128Z,6.89
2023-01-03T14:54:29.841Z,6.88
2023-01-03T14:57:32.081Z,6.91
2023-01-03T15:00:35.683Z,6.91
2023-01-03T15:03:39.577Z,6.89
2023-01-03T15:07:01.384Z,6.91
2023-01-03T15:10:18.138Z,6.89
2023-01-03T15:13:22.873Z,6.87
2023-01-03T15:16:26.903Z,6.88
2023-01-03T15:19:29.925Z,6.86
2023-01-03T15:22:35.913Z,6.84
2023-01-03T15:25:40.724Z,6.80
2023-01-03T15:28:49.123Z,6.77
2023-01-03T15:31:55.674Z,6.66
2023-01-03T15:34:57.301Z,6.60
2023-01-03T15:38:00.126Z,6.58
2023-01-03T15:41:06.582Z,6.56
2023-01-03T15:44:10.158Z,6.60
2023-01-03T15:47:14.097Z,6.64
2023-01-03T15:50:18.916Z,6.67
2023-01-03T15:53:22.301Z,6.67
2023-01-03T15:56:30.135Z,6.66
2023-01-03T15:59:35.666Z,6.65
2023-01-03T16:02:41.631Z,6.65
2023-01-03T16:05:43.812Z,6.65
2023-01-03T16:08:45.449Z,6.66
2023-01-03T16:11:57.202Z,6.67
2023-01-03T16:15:00.242Z,6.66
2023-01-03T16:18:01.869Z,6.66
2023-01-03T16:21:04.473Z,6.66
2023-01-03T16:24:06.089Z,6.63
2023-01-03T16:27:15.433Z,6.65
2023-01-03T16:30:17.355Z,6.65
2023-01-03T16:33:20.369Z,6.67
2023-01-03T16:36:24.835Z,6.65
2023-01-03T16:39:27.073Z,6.65
2023-01-03T16:42:30.026Z,6.63
2023-01-03T16:45:31.716Z,6.62
2023-01-03T16:48:36.856Z,6.62
2023-01-03T16:51:47.229Z,6.58
2023-01-03T16:54:51.373Z,6.57
2023-01-03T16:57:55.410Z,6.53
2023-01-03T17:00:57.614Z,6.52
2023-01-03T17:04:02.610Z,6.50
2023-01-03T17:07:04.525Z,6.44
2023-01-03T17:10:07.396Z,6.37
2023-01-03T17:13:19.559Z,6.33
2023-01-03T17:16:24.346Z,6.32
2023-01-03T17:22:50.388Z,6.31
2023-01-03T17:25:52.224Z,6.31
2023-01-03T17:28:55.532Z,6.30
2023-01-03T17:31:57.238Z,6.31
2023-01-03T17:34:58.826Z,6.29
2023-01-03T17:38:27.343Z,6.28
2023-01-03T17:41:25.369Z,6.29
2023-01-03T17:44:28.529Z,6.27
2023-01-03T17:47:48.731Z,6.22
2023-01-03T17:50:50.402Z,6.18
2023-01-03T17:53:52.381Z,6.16
2023-01-03T17:56:54.772Z,6.12
2023-01-03T17:59:57.772Z,6.04
2023-01-03T18:03:00.866Z,6.01
2023-01-03T18:06:05.424Z,6.03
2023-01-03T18:09:09.847Z,6.03
2023-01-03T18:12:13.188Z,6.01
2023-01-03T18:15:17.299Z,5.98
2023-01-03T18:18:20.904Z,5.94
2023-01-03T18:21:25.886Z,5.93
2023-01-03T18:24:31.225Z,5.89
2023-01-03T18:27:33.035Z,5.83
2023-01-03T18:30:36.033Z,5.79
2023-01-03T18:33:37.721Z,5.73
2023-01-03T18:36:40.169Z,5.69
2023-01-03T18:39:42.444Z,5.66
2023-01-03T18:43:02.800Z,5.67
2023-01-03T18:46:13.056Z,5.59
2023-01-03T18:49:15.070Z,5.56
2023-01-03T18:52:22.415Z,5.52
2023-01-03T18:55:25.435Z,5.50
2023-01-03T18:58:30.351Z,5.46
2023-01-03T19:01:33.614Z,5.42
2023-01-03T19:04:35.445Z,5.41
2023-01-03T19:07:38.912Z,5.36
2023-01-03T19:10:40.496Z,5.31
2023-01-03T19:13:51.632Z,5.29
2023-01-03T19:16:55.028Z,5.33
2023-01-03T19:19:56.611Z,5.34
2023-01-03T19:22:58.251Z,5.35
2023-01-03T19:26:01.400Z,5.32
2023-01-03T19:29:05.273Z,5.34
2023-01-03T19:32:11.909Z,5.36
2023-01-03T19:35:14.451Z,5.35
2023-01-03T19:38:16.051Z,5.36
2023-01-03T19:41:19.004Z,5.38
2023-01-03T19:44:20.696Z,5.36
2023-01-03T19:47:23.572Z,5.35
2023-01-03T19:50:26.085Z,5.36
2023-01-03T19:53:27.718Z,5.38
2023-01-03T19:56:29.285Z,5.39
2023-01-03T19:59:34.248Z,5.39
2023-01-03T20:02:39.236Z,5.39
2023-01-03T20:05:41.263Z,5.38
2023-01-03T20:08:42.769Z,5.41
2023-01-03T20:11:44.994Z,5.40
2023-01-03T20:14:49.361Z,5.38
2023-01-03T20:17:53.160Z,5.37
2023-01-03T20:20:55.847Z,5.37
2023-01-03T20:24:00.131Z,5.33
2023-01-03T20:27:01.774Z,5.29
2023-01-03T20:30:06.415Z,5.29
2023-01-03T20:33:09.417Z,5.20
2023-01-03T20:36:22.253Z,5.16
2023-01-03T20:39:26.099Z,5.14
2023-01-03T20:42:28.433Z,5.10
2023-01-03T20:45:30.811Z,5.07
2023-01-03T20:48:33.957Z,5.05
2023-01-03T20:51:35.632Z,5.05
2023-01-03T20:54:37.092Z,5.03
2023-01-03T20:57:38.723Z,5.03
2023-01-03T21:00:40.440Z,5.04
2023-01-03T21:03:45.615Z,5.01
2023-01-03T21:06:48.762Z,5.00
2023-01-03T21:09:50.386Z,4.97
2023-01-03T21:12:52.237Z,4.93
2023-01-03T21:15:53.882Z,4.88
2023-01-03T21:19:00.815Z,4.90
2023-01-03T21:22:02.419Z,4.90
2023-01-03T21:25:04.178Z,4.93
2023-01-03T21:28:05.878Z,4.96
2023-01-03T21:31:07.774Z,4.99
2023-01-03T21:34:14.370Z,4.98
2023-01-03T21:37:16.026Z,5.05
2023-01-03T21:40:18.720Z,5.01
2023-01-03T21:43:20.209Z,5.00
2023-01-03T21:46:21.820Z,4.98
2023-01-03T21:49:24.760Z,4.94
2023-01-03T21:52:26.300Z,4.89
2023-01-03T21:55:29.785Z,4.89
2023-01-03T21:58:31.307Z,4.86
2023-01-03T22:01:53.029Z,4.82
2023-01-03T22:04:56.005Z,4.79
2023-01-03T22:07:57.706Z,4.82
2023-01-03T22:10:59.218Z,4.83
2023-01-03T22:14:01.243Z,4.81
2023-01-03T22:17:02.786Z,4.85
2023-01-03T22:20:06.944Z,4.87
2023-01-03T22:23:08.483Z,4.89
2023-01-03T22:26:11.864Z,4.89
2023-01-03T22:29:13.416Z,4.92
2023-01-03T22:32:15.304Z,4.94
2023-01-03T22:35:21.061Z,4.92
2023-01-03T22:38:22.625Z,4.99
2023-01-03T22:41:24.149Z,4.96
2023-01-03T22:44:26.066Z,4.97
2023-01-03T22:47:28.245Z,4.91
2023-01-03T22:50:31.631Z,4.90
2023-01-03T22:53:34.182Z,4.92
2023-01-03T22:56:35.768Z,4.87
2023-01-03T22:59:37.461Z,4.88
2023-01-03T23:02:41.890Z,4.86
2023-01-03T23:05:45.366Z,4.84
2023-01-03T23:08:51.400Z,4.82
2023-01-03T23:12:11.562Z,4.82
2023-01-03T23:15:13.120Z,4.82
2023-01-03T23:18:14.780Z,4.83
2023-01-03T23:21:17.726Z,4.85
2023-01-03T23:24:20.351Z,4.84
2023-01-03T23:27:21.905Z,4.86
2023-01-03T23:30:23.499Z,4.90
2023-01-03T23:33:25.247Z,4.88
2023-01-03T23:36:28.391Z,4.82
2023-01-03T23:39:29.967Z,4.81
2023-01-03T23:42:31.547Z,4.81
2023-01-03T23:45:33.177Z,4.76
2023-01-03T23:48:35.104Z,4.73
2023-01-03T23:51:38.214Z,4.72
2023-01-03T23:54:39.753Z,4.71
2023-01-03T23:57:41.505Z,4.73
